createdAt,value
2022-09-28T00:00:38.639Z,8.40
2022-09-28T00:03:06.935Z,8.40
2022-09-28T00:05:34.854Z,8.50
2022-09-28T00:08:02.998Z,8.50
2022-09-28T00:10:34.687Z,8.60
2022-09-28T00:13:02.743Z,8.50
2022-09-28T00:15:33.502Z,8.60
2022-09-28T00:18:01.362Z,8.40
2022-09-28T00:20:29.225Z,8.40
2022-09-28T00:22:57.121Z,8.30
2022-09-28T00:25:25.048Z,8.40
2022-09-28T00:27:54.242Z,8.40
2022-09-28T00:30:22.146Z,8.60
2022-09-28T00:32:50.003Z,8.60
2022-09-28T00:35:17.885Z,8.60
2022-09-28T00:37:45.703Z,8.40
2022-09-28T00:40:13.508Z,8.50
2022-09-28T00:42:42.882Z,8.50
2022-09-28T00:45:12.158Z,8.60
2022-09-28T00:47:45.470Z,8.30
2022-09-28T00:50:17.511Z,8.40
2022-09-28T00:52:48.115Z,8.50
2022-09-28T00:55:17.325Z,8.40
2022-09-28T00:57:47.286Z,8.30
2022-09-28T01:00:16.808Z,8.50
2022-09-28T01:02:44.778Z,8.30
2022-09-28T01:05:12.653Z,8.30
2022-09-28T01:07:41.023Z,8.20
2022-09-28T01:10:09.547Z,8.30
2022-09-28T01:12:37.541Z,8.40
2022-09-28T01:15:06.214Z,8.30
2022-09-28T01:17:40.715Z,8.30
2022-09-28T01:20:24.998Z,8.30
2022-09-28T01:23:25.933Z,8.20
2022-09-28T01:26:20.781Z,8.20
2022-09-28T01:28:48.762Z,8.40
2022-09-28T01:31:17.045Z,8.20
2022-09-28T01:33:46.157Z,8.20
2022-09-28T01:36:14.880Z,8.30
2022-09-28T01:38:44.264Z,8.20
2022-09-28T01:41:12.174Z,8.20
2022-09-28T01:43:42.470Z,8.20
2022-09-28T01:46:13.103Z,8.40
2022-09-28T01:48:43.045Z,8.30
2022-09-28T01:51:12.759Z,8.20
2022-09-28T01:53:41.719Z,8.20
2022-09-28T01:56:12.460Z,8.30
2022-09-28T01:58:43.696Z,8.40
2022-09-28T02:01:25.613Z,8.30
2022-09-28T02:03:54.700Z,8.30
2022-09-28T02:06:24.719Z,8.10
2022-09-28T02:08:54.934Z,8.00
2022-09-28T02:11:22.869Z,8.00
2022-09-28T02:13:54.051Z,7.80
2022-09-28T02:16:24.003Z,7.90
2022-09-28T02:18:51.885Z,7.90
2022-09-28T02:21:24.082Z,7.80
2022-09-28T02:23:54.001Z,7.80
2022-09-28T02:26:22.117Z,7.70
2022-09-28T02:28:51.265Z,7.50
2022-09-28T02:31:19.092Z,7.50
2022-09-28T02:33:46.901Z,7.60
2022-09-28T02:36:14.699Z,7.80
2022-09-28T02:38:42.468Z,7.70
2022-09-28T02:41:13.390Z,7.80
2022-09-28T02:43:47.517Z,7.70
2022-09-28T02:46:20.199Z,7.50
2022-09-28T02:49:19.904Z,8.00
2022-09-28T02:51:53.176Z,7.80
2022-09-28T02:54:49.243Z,8.00
2022-09-28T02:57:23.030Z,7.80
2022-09-28T02:59:54.167Z,7.80
2022-09-28T03:02:27.547Z,7.60
2022-09-28T03:05:10.856Z,7.50
2022-09-28T03:07:41.660Z,7.40
2022-09-28T03:10:12.044Z,7.40
2022-09-28T03:12:39.878Z,7.40
2022-09-28T03:15:09.379Z,7.50
2022-09-28T03:17:38.569Z,7.50
2022-09-28T03:20:07.549Z,7.30
2022-09-28T03:22:35.429Z,7.30
2022-09-28T03:25:03.581Z,7.40
2022-09-28T03:27:31.405Z,7.50
2022-09-28T03:29:59.234Z,7.40
2022-09-28T03:32:27.100Z,7.50
2022-09-28T03:34:56.717Z,7.50
2022-09-28T03:37:24.621Z,7.60
2022-09-28T03:39:52.423Z,7.50
2022-09-28T03:42:20.387Z,7.50
2022-09-28T03:44:48.200Z,7.40
2022-09-28T03:47:17.921Z,7.60
2022-09-28T03:49:46.241Z,7.50
2022-09-28T03:52:15.487Z,7.60
2022-09-28T03:54:48.307Z,7.60
2022-09-28T03:57:17.001Z,7.60
2022-09-28T03:59:44.835Z,7.50
2022-09-28T04:02:13.103Z,7.60
2022-09-28T04:04:40.968Z,7.50
2022-09-28T04:07:08.869Z,7.50
2022-09-28T04:09:38.015Z,7.60
2022-09-28T04:12:05.947Z,7.50
2022-09-28T04:14:33.765Z,7.80
2022-09-28T04:17:02.451Z,7.90
2022-09-28T04:19:30.316Z,7.90
2022-09-28T04:21:58.268Z,7.70
2022-09-28T04:24:26.609Z,7.40
2022-09-28T04:27:16.529Z,7.60
2022-09-28T04:29:44.163Z,7.30
2022-09-28T04:32:12.503Z,7.40
2022-09-28T04:34:43.893Z,7.20
2022-09-28T04:37:12.311Z,7.30
2022-09-28T04:39:42.234Z,7.30
2022-09-28T04:42:13.284Z,7.50
2022-09-28T04:44:41.064Z,7.40
2022-09-28T04:47:08.851Z,7.40
2022-09-28T04:49:38.226Z,7.30
2022-09-28T04:52:06.243Z,7.40
2022-09-28T04:54:34.099Z,7.40
2022-09-28T04:57:03.535Z,7.30
2022-09-28T04:59:32.870Z,7.30
2022-09-28T05:02:01.045Z,7.50
2022-09-28T05:04:30.430Z,7.50
2022-09-28T05:06:58.305Z,7.50
2022-09-28T05:09:26.092Z,7.60
2022-09-28T05:11:54.076Z,7.50
2022-09-28T05:14:22.794Z,7.50
2022-09-28T05:16:51.985Z,7.60
2022-09-28T05:19:19.779Z,7.50
2022-09-28T05:21:48.809Z,7.50
2022-09-28T05:24:16.569Z,7.70
2022-09-28T05:26:44.500Z,7.50
2022-09-28T05:29:12.492Z,7.40
2022-09-28T05:31:40.336Z,7.60
2022-09-28T05:34:09.511Z,7.60
2022-09-28T05:36:39.110Z,7.70
2022-09-28T05:39:07.348Z,7.60
2022-09-28T05:41:35.250Z,7.80
2022-09-28T05:44:03.379Z,7.90
2022-09-28T05:46:31.177Z,7.80
2022-09-28T05:48:59.882Z,8.00
2022-09-28T05:51:29.019Z,7.90
2022-09-28T05:53:58.127Z,7.90
2022-09-28T05:56:30.813Z,7.80
2022-09-28T05:58:58.988Z,7.80
2022-09-28T06:01:26.914Z,7.90
2022-09-28T06:03:54.836Z,7.90
2022-09-28T06:06:22.666Z,8.00
2022-09-28T06:08:51.800Z,8.00
2022-09-28T06:11:19.613Z,7.80
2022-09-28T06:13:47.411Z,7.80
2022-09-28T06:16:16.002Z,7.90
2022-09-28T06:18:43.890Z,8.00
2022-09-28T06:21:13.229Z,8.00
2022-09-28T06:23:42.758Z,8.00
2022-09-28T06:26:14.831Z,8.00
2022-09-28T06:28:42.709Z,7.90
2022-09-28T06:31:10.784Z,8.00
2022-09-28T06:33:38.774Z,8.10
2022-09-28T06:36:07.227Z,7.90
2022-09-28T06:38:35.303Z,8.00
2022-09-28T06:41:03.154Z,8.10
2022-09-28T06:43:34.586Z,8.10
2022-09-28T06:46:02.704Z,8.10
2022-09-28T06:48:32.605Z,8.20
2022-09-28T06:51:00.668Z,8.10
2022-09-28T06:53:29.213Z,8.30
2022-09-28T06:55:57.437Z,8.30
2022-09-28T06:58:27.280Z,8.30
2022-09-28T07:00:58.647Z,8.30
2022-09-28T07:03:26.710Z,8.20
2022-09-28T07:05:55.212Z,8.30
2022-09-28T07:08:24.563Z,9.10
2022-09-28T07:10:56.072Z,9.70
2022-09-28T07:13:47.789Z,9.10
2022-09-28T07:16:13.330Z,8.90
2022-09-28T07:18:42.237Z,8.60
2022-09-28T07:21:18.787Z,8.50
2022-09-28T07:23:54.085Z,8.50
2022-09-28T07:26:24.320Z,8.50
2022-09-28T07:28:52.635Z,8.60
2022-09-28T07:31:22.240Z,8.60
2022-09-28T07:33:51.252Z,8.50
2022-09-28T07:36:20.822Z,8.70
2022-09-28T07:38:48.957Z,8.60
2022-09-28T07:41:21.554Z,8.50
2022-09-28T07:43:49.840Z,8.60
2022-09-28T07:46:17.890Z,8.60
2022-09-28T07:48:47.099Z,8.80
2022-09-28T07:51:14.851Z,8.60
2022-09-28T07:53:42.632Z,8.70
2022-09-28T07:56:10.383Z,8.70
2022-09-28T07:58:38.949Z,8.80
2022-09-28T08:01:07.848Z,8.60
2022-09-28T08:03:35.951Z,8.70
2022-09-28T08:06:06.996Z,8.70
2022-09-28T08:08:35.673Z,8.60
2022-09-28T08:11:03.603Z,8.60
2022-09-28T08:13:31.400Z,9.30
2022-09-28T08:16:01.736Z,9.60
2022-09-28T08:18:29.497Z,9.80
2022-09-28T08:21:15.020Z,9.60
2022-09-28T08:23:44.160Z,9.60
2022-09-28T08:26:15.336Z,9.20
2022-09-28T08:28:44.936Z,9.10
2022-09-28T08:31:12.841Z,9.00
2022-09-28T08:33:42.053Z,9.00
2022-09-28T08:36:10.704Z,9.20
2022-09-28T08:38:38.484Z,9.10
2022-09-28T08:41:14.600Z,9.30
2022-09-28T08:43:57.200Z,9.20
2022-09-28T08:46:27.305Z,9.10
2022-09-28T08:49:20.720Z,9.10
2022-09-28T08:51:46.998Z,9.00
2022-09-28T08:54:23.881Z,9.00
2022-09-28T08:56:53.640Z,9.00
2022-09-28T08:59:23.694Z,8.80
2022-09-28T09:01:55.963Z,8.90
2022-09-28T09:04:25.305Z,9.00
2022-09-28T09:07:13.703Z,9.00
2022-09-28T09:09:49.056Z,9.20
2022-09-28T09:12:22.493Z,9.20
2022-09-28T09:15:06.138Z,9.20
2022-09-28T09:17:39.995Z,9.20
2022-09-28T09:20:16.141Z,9.20
2022-09-28T09:22:50.453Z,9.20
2022-09-28T09:25:20.217Z,9.20
2022-09-28T09:28:15.977Z,9.40
2022-09-28T09:30:47.369Z,9.40
2022-09-28T09:33:34.170Z,9.40
2022-09-28T09:36:08.453Z,9.60
2022-09-28T09:38:47.507Z,9.70
2022-09-28T09:41:21.475Z,9.70
2022-09-28T09:44:02.957Z,9.80
2022-09-28T09:46:35.125Z,9.90
2022-09-28T09:49:05.774Z,9.90
2022-09-28T09:51:38.197Z,9.90
2022-09-28T09:54:07.419Z,9.90
2022-09-28T09:56:38.510Z,10.00
2022-09-28T09:59:09.108Z,10.10
2022-09-28T10:01:38.608Z,10.10
2022-09-28T10:04:07.319Z,10.30
2022-09-28T10:06:36.515Z,10.40
2022-09-28T10:09:05.809Z,10.40
2022-09-28T10:11:36.942Z,10.40
2022-09-28T10:14:05.701Z,10.50
2022-09-28T10:16:34.903Z,10.50
2022-09-28T10:19:02.700Z,10.50
2022-09-28T10:21:30.464Z,10.60
2022-09-28T10:23:59.193Z,10.50
2022-09-28T10:26:28.535Z,10.50
2022-09-28T10:28:58.003Z,10.50
2022-09-28T10:31:37.991Z,10.50
2022-09-28T10:34:05.978Z,10.50
2022-09-28T10:36:38.311Z,10.70
2022-09-28T10:39:06.309Z,10.70
2022-09-28T10:41:34.639Z,10.70
2022-09-28T10:44:10.934Z,10.90
2022-09-28T10:46:40.156Z,10.80
2022-09-28T10:49:09.530Z,10.70
2022-09-28T10:51:43.589Z,10.80
2022-09-28T10:54:16.030Z,10.80
2022-09-28T10:56:44.089Z,11.00
2022-09-28T10:59:25.829Z,11.10
2022-09-28T11:01:56.305Z,11.00
2022-09-28T11:04:25.699Z,11.00
2022-09-28T11:06:54.468Z,10.90
2022-09-28T11:09:29.862Z,10.90
2022-09-28T11:11:59.127Z,10.80
2022-09-28T11:14:28.728Z,10.80
2022-09-28T11:17:17.038Z,10.80
2022-09-28T11:19:44.838Z,10.70
2022-09-28T11:22:28.786Z,10.80
2022-09-28T11:25:15.533Z,10.80
2022-09-28T11:27:43.428Z,10.80
2022-09-28T11:30:23.773Z,10.70
2022-09-28T11:32:53.215Z,11.00
2022-09-28T11:35:21.955Z,11.00
2022-09-28T11:38:08.100Z,10.90
2022-09-28T11:40:44.500Z,10.90
2022-09-28T11:43:16.648Z,10.90
2022-09-28T11:45:52.079Z,10.90
2022-09-28T11:48:23.829Z,11.00
2022-09-28T11:50:53.166Z,10.90
2022-09-28T11:53:24.028Z,10.80
2022-09-28T11:55:55.921Z,10.90
2022-09-28T11:58:27.085Z,11.10
2022-09-28T12:00:57.887Z,11.00
2022-09-28T12:03:30.403Z,11.00
2022-09-28T12:05:59.535Z,11.00
2022-09-28T12:08:29.100Z,11.10
2022-09-28T12:10:59.075Z,11.40
2022-09-28T12:13:28.273Z,11.60
2022-09-28T12:16:38.501Z,11.80
2022-09-28T12:18:50.266Z,12.00
2022-09-28T12:21:29.443Z,11.90
2022-09-28T12:23:58.155Z,12.20
2022-09-28T12:26:32.515Z,12.00
2022-09-28T12:29:03.103Z,11.70
2022-09-28T12:31:35.174Z,11.60
2022-09-28T12:34:04.328Z,11.50
2022-09-28T12:36:41.603Z,11.40
2022-09-28T12:39:30.742Z,11.40
2022-09-28T12:42:14.758Z,11.50
2022-09-28T12:44:58.579Z,11.50
2022-09-28T12:47:47.627Z,11.20
2022-09-28T12:50:38.029Z,11.20
2022-09-28T12:53:21.589Z,11.30
2022-09-28T12:55:56.508Z,11.10
2022-09-28T12:58:32.784Z,11.00
2022-09-28T13:01:05.148Z,10.90
2022-09-28T13:03:45.876Z,11.00
2022-09-28T13:06:37.685Z,11.10
2022-09-28T13:09:16.727Z,11.10
2022-09-28T13:11:49.217Z,11.20
2022-09-28T13:14:44.584Z,11.20
2022-09-28T13:17:16.900Z,11.20
2022-09-28T13:19:47.454Z,11.10
2022-09-28T13:22:24.243Z,11.10
2022-09-28T13:24:52.567Z,11.10
2022-09-28T13:27:23.802Z,11.10
2022-09-28T13:29:51.694Z,11.10
2022-09-28T13:32:19.604Z,11.30
2022-09-28T13:34:49.953Z,11.30
2022-09-28T13:37:24.457Z,11.20
2022-09-28T13:39:53.165Z,11.20
2022-09-28T13:42:37.164Z,11.20
2022-09-28T13:45:18.597Z,11.30
2022-09-28T13:48:02.705Z,11.00
2022-09-28T13:50:38.435Z,11.00
2022-09-28T13:53:12.461Z,11.50
2022-09-28T13:55:45.213Z,11.50
2022-09-28T13:58:17.527Z,11.40
2022-09-28T14:00:47.631Z,11.10
2022-09-28T14:03:26.205Z,11.10
2022-09-28T14:06:06.169Z,11.00
2022-09-28T14:08:38.405Z,10.80
2022-09-28T14:11:31.574Z,10.80
2022-09-28T14:14:00.842Z,10.80
2022-09-28T14:16:31.128Z,10.80
2022-09-28T14:19:01.159Z,10.90
2022-09-28T14:22:07.577Z,10.80
2022-09-28T14:24:45.006Z,10.80
2022-09-28T14:27:41.713Z,10.90
2022-09-28T14:30:19.763Z,10.90
2022-09-28T14:32:52.061Z,10.80
2022-09-28T14:35:21.424Z,10.70
2022-09-28T14:38:07.267Z,10.70
2022-09-28T14:41:13.048Z,10.50
2022-09-28T14:44:04.256Z,10.50
2022-09-28T14:46:45.605Z,10.60
2022-09-28T14:49:48.907Z,10.70
2022-09-28T14:52:20.208Z,10.60
2022-09-28T14:54:53.601Z,10.50
2022-09-28T14:57:25.254Z,10.50
2022-09-28T14:59:53.559Z,10.50
2022-09-28T15:02:24.697Z,10.20
2022-09-28T15:04:54.748Z,10.30
2022-09-28T15:07:24.661Z,10.30
2022-09-28T15:09:53.421Z,10.30
2022-09-28T15:12:25.522Z,10.30
2022-09-28T15:14:55.686Z,10.20
2022-09-28T15:17:24.801Z,10.10
2022-09-28T15:20:09.415Z,10.20
2022-09-28T15:22:37.625Z,10.00
2022-09-28T15:25:10.025Z,9.80
2022-09-28T15:27:41.239Z,9.80
2022-09-28T15:30:24.174Z,9.70
2022-09-28T15:32:54.439Z,9.70
2022-09-28T15:35:22.567Z,9.80
2022-09-28T15:37:52.028Z,9.90
2022-09-28T15:40:22.500Z,9.90
2022-09-28T15:42:54.790Z,10.00
2022-09-28T15:45:27.517Z,9.80
2022-09-28T15:47:58.686Z,9.70
2022-09-28T15:50:28.013Z,9.70
2022-09-28T15:52:57.563Z,9.70
2022-09-28T15:55:26.564Z,9.60
2022-09-28T15:58:07.852Z,9.70
2022-09-28T16:00:35.865Z,9.80
2022-09-28T16:03:09.968Z,9.80
2022-09-28T16:05:42.197Z,10.00
2022-09-28T16:08:21.191Z,9.80
2022-09-28T16:10:58.036Z,9.80
2022-09-28T16:16:00.038Z,9.70
2022-09-28T16:21:41.007Z,9.70
2022-09-28T16:24:16.363Z,9.70
2022-09-28T16:26:44.561Z,9.60
2022-09-28T16:29:28.824Z,9.70
2022-09-28T16:32:04.335Z,10.40
2022-09-28T16:34:32.520Z,10.50
2022-09-28T16:37:01.926Z,10.00
2022-09-28T16:39:32.967Z,9.80
2022-09-28T16:42:11.039Z,10.00
2022-09-28T16:44:39.041Z,10.00
2022-09-28T16:47:08.576Z,9.80
2022-09-28T16:49:36.660Z,9.80
2022-09-28T16:52:05.025Z,9.90
2022-09-28T16:54:50.532Z,9.80
2022-09-28T16:57:18.680Z,9.70
2022-09-28T16:59:46.727Z,9.70
2022-09-28T17:02:42.013Z,9.70
2022-09-28T17:05:07.668Z,9.80
2022-09-28T17:07:38.280Z,9.80
2022-09-28T17:10:16.885Z,9.60
2022-09-28T17:12:45.170Z,9.50
2022-09-28T17:15:16.315Z,9.40
2022-09-28T17:17:48.121Z,9.40
2022-09-28T17:20:22.427Z,9.50
2022-09-28T17:22:50.606Z,9.50
2022-09-28T17:25:18.879Z,9.50
2022-09-28T17:27:47.695Z,9.50
2022-09-28T17:30:16.222Z,9.50
2022-09-28T17:32:52.871Z,9.60
2022-09-28T17:35:26.825Z,9.50
2022-09-28T17:37:55.932Z,9.50
2022-09-28T17:40:24.926Z,9.40
2022-09-28T17:42:55.244Z,9.40
2022-09-28T17:45:23.442Z,9.50
2022-09-28T17:47:53.074Z,9.50
2022-09-28T17:50:22.930Z,9.50
2022-09-28T17:52:54.280Z,9.50
2022-09-28T17:55:22.885Z,9.40
2022-09-28T17:57:50.951Z,9.30
2022-09-28T18:00:20.816Z,9.30
2022-09-28T18:02:48.776Z,9.30
2022-09-28T18:05:19.633Z,9.40
2022-09-28T18:07:48.025Z,9.40
2022-09-28T18:10:16.739Z,9.30
2022-09-28T18:12:44.847Z,9.40
2022-09-28T18:15:12.868Z,9.40
2022-09-28T18:17:41.094Z,9.30
2022-09-28T18:20:15.538Z,9.60
2022-09-28T18:22:45.292Z,10.10
2022-09-28T18:25:13.714Z,9.80
2022-09-28T18:27:41.647Z,9.70
2022-09-28T18:30:10.553Z,9.80
2022-09-28T18:32:38.584Z,9.50
2022-09-28T18:35:07.597Z,9.40
2022-09-28T18:37:46.153Z,9.50
2022-09-28T18:40:14.184Z,9.40
2022-09-28T18:42:44.354Z,9.50
2022-09-28T18:45:13.185Z,9.50
2022-09-28T18:47:41.029Z,9.50
2022-09-28T18:50:11.550Z,9.40
2022-09-28T18:52:39.767Z,9.30
2022-09-28T18:55:09.642Z,9.20
2022-09-28T18:57:38.339Z,9.10
2022-09-28T19:00:07.795Z,9.20
2022-09-28T19:02:37.925Z,9.20
2022-09-28T19:05:06.869Z,9.30
2022-09-28T19:07:34.860Z,9.30
2022-09-28T19:10:02.848Z,9.30
2022-09-28T19:12:32.188Z,9.40
2022-09-28T19:15:14.305Z,9.30
2022-09-28T19:17:42.494Z,9.40
2022-09-28T19:20:11.108Z,9.20
2022-09-28T19:22:39.629Z,9.20
2022-09-28T19:25:08.404Z,9.30
2022-09-28T19:27:37.722Z,9.00
2022-09-28T19:30:06.800Z,8.90
2022-09-28T19:32:34.838Z,8.90
2022-09-28T19:35:03.521Z,8.90
2022-09-28T19:37:35.377Z,8.90
2022-09-28T19:40:03.849Z,8.80
2022-09-28T19:42:31.787Z,8.90
2022-09-28T19:45:01.093Z,8.80
2022-09-28T19:47:32.276Z,8.80
2022-09-28T19:50:00.391Z,8.80
2022-09-28T19:52:28.617Z,9.00
2022-09-28T19:54:57.233Z,8.90
2022-09-28T19:57:26.027Z,8.80
2022-09-28T19:59:57.871Z,8.90
2022-09-28T20:02:31.015Z,8.90
2022-09-28T20:04:59.224Z,8.90
2022-09-28T20:07:27.401Z,8.80
2022-09-28T20:09:55.492Z,8.80
2022-09-28T20:12:23.796Z,9.00
2022-09-28T20:14:51.755Z,9.00
2022-09-28T20:17:21.621Z,9.00
2022-09-28T20:19:52.414Z,8.90
2022-09-28T20:22:21.282Z,8.90
2022-09-28T20:24:49.332Z,8.90
2022-09-28T20:27:17.412Z,9.20
2022-09-28T20:29:45.735Z,9.30
2022-09-28T20:32:14.214Z,9.40
2022-09-28T20:34:42.152Z,9.00
2022-09-28T20:37:13.761Z,8.90
2022-09-28T20:39:44.905Z,9.00
2022-09-28T20:42:14.502Z,9.10
2022-09-28T20:44:42.515Z,9.00
2022-09-28T20:47:10.889Z,9.00
2022-09-28T20:49:38.956Z,9.10
2022-09-28T20:52:06.932Z,9.00
2022-09-28T20:54:37.867Z,8.90
2022-09-28T20:57:17.481Z,8.80
2022-09-28T20:59:46.621Z,8.90
2022-09-28T21:02:18.000Z,8.80
2022-09-28T21:04:46.254Z,8.70
2022-09-28T21:07:14.181Z,8.70
2022-09-28T21:09:43.416Z,8.80
2022-09-28T21:12:11.381Z,8.70
2022-09-28T21:14:39.547Z,8.70
2022-09-28T21:17:07.689Z,8.70
2022-09-28T21:19:35.887Z,8.70
2022-09-28T21:22:06.993Z,8.70
2022-09-28T21:24:34.839Z,8.50
2022-09-28T21:27:04.492Z,8.60
2022-09-28T21:29:41.469Z,8.80
2022-09-28T21:32:09.671Z,8.60
2022-09-28T21:34:40.296Z,8.50
2022-09-28T21:37:08.315Z,8.60
2022-09-28T21:39:36.393Z,8.70
2022-09-28T21:42:06.403Z,8.60
2022-09-28T21:44:59.297Z,8.50
2022-09-28T21:47:27.828Z,8.60
2022-09-28T21:52:47.514Z,8.50
2022-09-28T21:55:15.673Z,8.50
2022-09-28T21:57:48.778Z,8.50
2022-09-28T22:00:17.541Z,8.40
2022-09-28T22:02:45.533Z,8.50
2022-09-28T22:05:14.590Z,8.30
2022-09-28T22:07:42.656Z,8.30
2022-09-28T22:10:15.400Z,8.30
2022-09-28T22:12:44.793Z,8.30
2022-09-28T22:15:13.012Z,8.10
2022-09-28T22:17:41.057Z,8.10
2022-09-28T22:20:09.646Z,8.10
2022-09-28T22:22:37.628Z,8.10
2022-09-28T22:25:09.082Z,8.10
2022-09-28T22:27:40.579Z,8.00
2022-09-28T22:30:10.933Z,8.00
2022-09-28T22:32:38.841Z,7.90
2022-09-28T22:35:08.019Z,8.00
2022-09-28T22:40:17.850Z,8.20
2022-09-28T22:42:53.671Z,8.20
2022-09-28T22:45:24.590Z,8.10
2022-09-28T22:47:52.572Z,8.10
2022-09-28T22:50:20.723Z,8.10
2022-09-28T22:52:52.006Z,8.00
2022-09-28T22:55:19.949Z,8.10
2022-09-28T22:57:55.375Z,8.20
2022-09-28T23:00:24.667Z,8.10
2022-09-28T23:02:55.003Z,8.10
2022-09-28T23:05:23.155Z,8.30
2022-09-28T23:07:51.120Z,8.30
2022-09-28T23:10:19.148Z,8.40
2022-09-28T23:12:47.112Z,8.30
2022-09-28T23:15:15.569Z,8.30
2022-09-28T23:17:52.495Z,8.30
2022-09-28T23:20:20.568Z,8.20
2022-09-28T23:23:14.923Z,8.10
2022-09-28T23:25:42.893Z,8.30
2022-09-28T23:28:11.318Z,8.30
2022-09-28T23:30:39.403Z,8.20
2022-09-28T23:33:10.685Z,8.40
2022-09-28T23:35:47.706Z,8.10
2022-09-28T23:38:18.081Z,8.10
2022-09-28T23:40:46.383Z,8.10
2022-09-28T23:43:14.778Z,8.00
2022-09-28T23:45:43.809Z,8.10
2022-09-28T23:48:15.204Z,7.90
2022-09-28T23:50:43.710Z,8.00
2022-09-28T23:53:11.795Z,8.00
2022-09-28T23:55:39.821Z,8.10
2022-09-28T23:58:07.759Z,8.10
